createdAt,value
2022-10-20T04:33:06.903Z,9.40
2022-10-20T04:38:09.615Z,10.20
2022-10-20T04:43:12.351Z,9.13
2022-10-20T04:48:15.083Z,9.63
2022-10-20T04:53:17.778Z,10.40
2022-10-20T04:58:20.482Z,9.03
2022-10-20T05:03:23.178Z,9.97
2022-10-20T05:08:25.832Z,9.10
2022-10-20T05:13:28.616Z,7.13
2022-10-20T05:18:31.904Z,8.57
2022-10-20T05:23:34.683Z,8.30
2022-10-20T05:28:37.366Z,8.90
2022-10-20T05:33:43.556Z,9.10
2022-10-20T05:38:46.909Z,9.20
2022-10-20T05:43:58.791Z,10.33
2022-10-20T05:49:02.999Z,10.60
2022-10-20T05:54:05.699Z,10.10
2022-10-20T05:59:08.542Z,11.80
2022-10-20T06:04:11.241Z,10.63
2022-10-20T06:09:13.940Z,10.50
2022-10-20T06:14:17.439Z,12.27
2022-10-20T06:19:20.542Z,13.00
2022-10-20T06:24:23.284Z,13.23
2022-10-20T06:29:26.073Z,13.47
2022-10-20T06:34:28.745Z,14.67
2022-10-20T06:39:31.491Z,16.40
2022-10-20T06:44:39.320Z,17.30
2022-10-20T06:49:42.024Z,17.13
2022-10-20T06:54:44.739Z,15.97
2022-10-20T06:59:48.841Z,16.07
2022-10-20T07:04:54.159Z,15.50
2022-10-20T07:09:57.089Z,15.10
2022-10-20T07:14:59.859Z,15.90
2022-10-20T07:20:02.790Z,16.23
2022-10-20T07:25:06.986Z,15.93
2022-10-20T07:30:09.960Z,15.57
2022-10-20T07:35:12.649Z,14.87
2022-10-20T07:40:15.536Z,13.67
2022-10-20T07:45:26.046Z,13.17
2022-10-20T07:50:28.928Z,12.63
2022-10-20T07:55:38.640Z,12.73
2022-10-20T08:00:42.089Z,12.07
2022-10-20T08:05:44.797Z,11.50
2022-10-20T08:10:47.587Z,9.80
2022-10-20T08:15:52.916Z,10.87
2022-10-20T08:21:05.596Z,11.73
2022-10-20T08:26:11.366Z,11.60
2022-10-20T08:31:14.517Z,8.07
2022-10-20T08:36:17.467Z,7.37
2022-10-20T08:41:27.014Z,5.63
2022-10-20T08:46:36.807Z,5.43
2022-10-20T08:51:39.676Z,5.60
2022-10-20T08:56:42.899Z,5.30
2022-10-20T09:01:45.733Z,10.10
2022-10-20T09:06:57.158Z,8.03
2022-10-20T09:12:08.225Z,5.90
2022-10-20T09:17:17.797Z,5.97
2022-10-20T09:22:22.405Z,4.63
2022-10-20T09:27:34.070Z,4.97
2022-10-20T09:32:52.384Z,6.07
2022-10-20T09:38:15.521Z,5.70
2022-10-20T09:43:19.019Z,5.17
2022-10-20T09:48:31.782Z,4.37
2022-10-20T09:53:38.391Z,5.13
2022-10-20T09:58:42.690Z,5.07
2022-10-20T10:03:53.329Z,4.67
2022-10-20T10:08:57.782Z,4.90
2022-10-20T10:14:01.075Z,5.10
2022-10-20T10:19:04.916Z,4.70
2022-10-20T10:24:10.461Z,4.13
2022-10-20T10:29:17.769Z,4.97
2022-10-20T10:34:20.402Z,4.57
2022-10-20T10:39:23.114Z,4.03
2022-10-20T10:44:52.372Z,3.17
2022-10-20T10:49:54.984Z,2.47
2022-10-20T10:55:04.239Z,2.20
2022-10-20T11:00:21.678Z,1.67
2022-10-20T11:05:33.226Z,2.30
2022-10-20T11:10:44.824Z,1.90
2022-10-20T11:16:12.159Z,1.80
2022-10-20T11:21:46.222Z,1.80
2022-10-20T11:26:54.446Z,1.80
2022-10-20T11:32:25.679Z,1.60
2022-10-20T11:37:30.910Z,1.80
2022-10-20T11:42:56.314Z,1.90
2022-10-20T11:48:14.359Z,1.70
2022-10-20T11:53:27.559Z,1.23
2022-10-20T11:58:54.591Z,1.60
2022-10-20T12:04:38.680Z,1.70
2022-10-20T12:09:52.764Z,1.50
2022-10-20T12:15:33.617Z,1.50
2022-10-20T12:20:39.468Z,1.60
2022-10-20T12:25:42.422Z,1.40
2022-10-20T12:30:46.396Z,1.83
2022-10-20T12:36:13.975Z,1.70
2022-10-20T12:41:33.849Z,1.30
2022-10-20T12:46:40.844Z,1.30
2022-10-20T12:51:50.800Z,1.87
2022-10-20T12:56:59.401Z,1.50
2022-10-20T13:02:11.251Z,1.70
2022-10-20T13:07:13.975Z,1.50
2022-10-20T13:12:29.011Z,1.30
2022-10-20T13:18:01.648Z,1.40
2022-10-20T13:23:04.601Z,1.33
2022-10-20T13:28:13.528Z,1.47
2022-10-20T13:33:38.463Z,1.50
2022-10-20T13:39:11.445Z,1.43
2022-10-20T13:44:38.795Z,1.60
2022-10-20T13:50:06.202Z,2.07
2022-10-20T13:55:16.167Z,1.60
2022-10-20T14:00:26.044Z,2.47
2022-10-20T14:05:31.556Z,2.27
2022-10-20T14:10:56.210Z,2.03
2022-10-20T14:16:00.332Z,2.27
2022-10-20T14:21:13.459Z,5.40
2022-10-20T14:26:21.899Z,12.60
2022-10-20T14:31:25.354Z,7.93
2022-10-20T14:36:29.333Z,3.73
2022-10-20T14:41:34.001Z,2.83
2022-10-20T14:46:39.876Z,2.27
2022-10-20T14:51:47.681Z,2.07
2022-10-20T14:56:51.749Z,2.23
2022-10-20T15:02:01.577Z,2.03
2022-10-20T15:07:19.391Z,2.10
2022-10-20T15:12:33.057Z,2.57
2022-10-20T15:17:37.892Z,3.03
2022-10-20T15:22:43.307Z,2.70
2022-10-20T15:27:46.269Z,2.30
2022-10-20T15:32:49.346Z,2.60
2022-10-20T15:37:56.249Z,3.40
2022-10-20T15:42:59.184Z,3.30
2022-10-20T15:48:03.271Z,4.57
2022-10-20T15:53:06.231Z,4.80
2022-10-20T15:58:14.384Z,4.40
2022-10-20T16:03:18.672Z,5.00
2022-10-20T16:08:21.475Z,5.27
2022-10-20T16:13:24.174Z,5.13
2022-10-20T16:18:26.909Z,4.97
2022-10-20T16:23:29.716Z,4.10
2022-10-20T16:28:32.444Z,4.70
2022-10-20T16:33:35.921Z,4.97
2022-10-20T16:38:40.275Z,6.23
2022-10-20T16:43:45.447Z,6.60
2022-10-20T16:48:49.237Z,7.63
2022-10-20T16:53:53.602Z,8.40
2022-10-20T16:58:56.962Z,8.63
2022-10-20T17:03:59.650Z,9.67
2022-10-20T17:09:02.474Z,11.50
2022-10-20T17:14:05.257Z,10.97
2022-10-20T17:19:08.142Z,8.80
2022-10-20T17:24:12.551Z,8.20
2022-10-20T17:29:15.300Z,8.43
2022-10-20T17:34:18.519Z,7.83
2022-10-20T17:39:22.204Z,8.03
2022-10-20T17:44:25.004Z,7.97
2022-10-20T17:49:28.096Z,7.70
2022-10-20T17:54:30.818Z,8.97
2022-10-20T17:59:38.338Z,10.73
2022-10-20T18:04:51.128Z,12.97
2022-10-20T18:09:54.124Z,11.70
2022-10-20T18:14:56.827Z,13.60
2022-10-20T18:20:00.109Z,18.43
2022-10-20T18:25:02.902Z,29.10
2022-10-20T18:30:07.655Z,32.77
2022-10-20T18:35:10.705Z,26.77
2022-10-20T18:40:13.454Z,25.37
2022-10-20T18:45:16.459Z,20.93
2022-10-20T18:50:19.386Z,37.10
2022-10-20T18:55:27.037Z,47.63
2022-10-20T19:00:32.633Z,29.57
2022-10-20T19:05:37.843Z,20.30
2022-10-20T19:10:44.135Z,17.83
2022-10-20T19:15:46.909Z,18.07
2022-10-20T19:20:57.344Z,17.83
2022-10-20T19:26:19.062Z,17.73
2022-10-20T19:31:32.758Z,17.40
2022-10-20T19:36:35.768Z,18.63
2022-10-20T19:41:38.523Z,18.23
2022-10-20T19:46:41.848Z,18.27
2022-10-20T19:51:44.541Z,17.87
2022-10-20T19:56:49.958Z,19.37
2022-10-20T20:01:52.879Z,18.93
2022-10-20T20:07:01.901Z,19.10
2022-10-20T20:12:05.320Z,16.77
2022-10-20T20:17:10.910Z,16.43
2022-10-20T20:22:17.005Z,15.93
2022-10-20T20:27:19.694Z,14.87
2022-10-20T20:32:22.444Z,14.00
2022-10-20T20:37:25.325Z,15.20
2022-10-20T20:42:28.057Z,14.00
2022-10-20T20:47:34.167Z,15.83
2022-10-20T20:52:36.863Z,15.23
2022-10-20T20:57:39.847Z,15.70
2022-10-20T21:02:46.581Z,14.93
2022-10-20T21:07:49.350Z,14.63
2022-10-20T21:12:52.049Z,15.03
2022-10-20T21:17:54.932Z,16.20
2022-10-20T21:22:57.637Z,16.90
2022-10-20T21:28:00.379Z,17.47
2022-10-20T21:33:03.075Z,17.50
2022-10-20T21:38:05.762Z,17.03
2022-10-20T21:43:11.222Z,16.50
2022-10-20T21:48:13.903Z,16.50
2022-10-20T21:53:17.115Z,17.17
2022-10-20T21:58:19.774Z,14.57
2022-10-20T22:03:22.764Z,15.03
2022-10-20T22:08:25.495Z,14.43
2022-10-20T22:13:29.312Z,13.73
2022-10-20T22:18:32.120Z,14.40
2022-10-20T22:23:35.201Z,14.23
2022-10-20T22:28:38.278Z,13.33
2022-10-20T22:33:41.079Z,12.27
2022-10-20T22:38:43.769Z,11.10
2022-10-20T22:43:46.543Z,11.00
2022-10-20T22:48:49.354Z,12.30
2022-10-20T22:53:52.064Z,11.43
2022-10-20T22:58:55.398Z,11.13
2022-10-20T23:03:58.162Z,11.80
2022-10-20T23:09:00.987Z,12.87
2022-10-20T23:14:06.492Z,12.63
2022-10-20T23:19:09.227Z,13.37
2022-10-20T23:24:11.894Z,13.20
2022-10-20T23:29:14.589Z,12.77
